Time;durP1;ratioP1;P1;durP2;ratioP2;P2;SDS_P1;SDS_P2;PMS_P1;PMS_P2;Temp;Humidity;BMP_temperature;BMP_pressure;BME280_temperature;BME280_humidity;BME280_pressure;Samples;Min_cycle;Max_cycle;Signal;HPM_P1;HPM_P2
2021/10/20 00:00:28;;;;;;;7.70;6.03;;;;;;;14.82;76.89;101046.25;5093504;28;20078;-66
2021/10/20 00:02:55;;;;;;;6.75;5.70;;;;;;;14.83;76.28;101035.34;5093195;28;20116;-66
2021/10/20 00:05:21;;;;;;;6.93;5.72;;;;;;;14.88;76.24;101046.41;5092382;28;20028;-66
2021/10/20 00:07:46;;;;;;;8.93;6.75;;;;;;;14.86;75.86;101037.69;5093349;28;20028;-66
2021/10/20 00:10:14;;;;;;;7.93;6.43;;;;;;;14.81;75.67;101042.72;5093406;28;20029;-65
2021/10/20 00:12:40;;;;;;;8.35;5.97;;;;;;;14.83;75.57;101032.66;5093413;28;20028;-66
2021/10/20 00:15:09;;;;;;;7.75;6.85;;;;;;;14.83;75.88;101019.25;5093231;28;20020;-66
2021/10/20 00:17:34;;;;;;;8.05;6.85;;;;;;;14.81;75.34;101005.16;5093167;28;20024;-65
2021/10/20 00:20:07;;;;;;;8.90;6.88;;;;;;;14.82;75.46;101014.91;5074955;28;20073;-66
2021/10/20 00:22:34;;;;;;;8.98;6.68;;;;;;;14.79;75.65;101009.88;5092944;28;20043;-65
2021/10/20 00:24:59;;;;;;;9.77;7.07;;;;;;;14.76;75.92;101004.84;5092765;28;20044;-66
2021/10/20 00:27:26;;;;;;;7.47;6.30;;;;;;;14.70;76.11;101014.44;5093045;28;20471;-66
2021/10/20 00:29:51;;;;;;;7.60;6.80;;;;;;;14.72;75.53;101007.06;5092797;28;20490;-65
2021/10/20 00:32:17;;;;;;;6.93;6.23;;;;;;;14.71;75.98;101002.72;5093182;28;20055;-66
2021/10/20 00:34:42;;;;;;;8.90;6.83;;;;;;;14.67;75.51;101001.41;5092908;28;20039;-65
2021/10/20 00:37:07;;;;;;;11.30;6.63;;;;;;;14.64;75.97;100991.00;5092551;28;20868;-65
2021/10/20 00:39:33;;;;;;;10.33;6.93;;;;;;;14.73;75.29;100992.63;5092807;28;20116;-65
2021/10/20 00:41:58;;;;;;;8.17;6.50;;;;;;;14.68;75.57;100973.56;5092719;28;20653;-65
2021/10/20 00:44:23;;;;;;;8.00;6.80;;;;;;;14.71;75.05;100983.13;5092647;28;20028;-66
2021/10/20 00:46:49;;;;;;;11.07;6.77;;;;;;;14.72;75.15;100972.19;5092692;28;20350;-66
2021/10/20 00:49:15;;;;;;;8.75;7.63;;;;;;;14.71;75.15;100991.97;5092830;28;20282;-66
2021/10/20 00:51:41;;;;;;;7.32;6.15;;;;;;;14.66;75.45;100980.13;5092789;28;20044;-66
2021/10/20 00:54:06;;;;;;;8.73;6.78;;;;;;;14.74;74.53;100988.13;5092119;28;20479;-66
2021/10/20 00:56:32;;;;;;;10.30;6.78;;;;;;;14.69;75.13;100979.75;5092388;28;20020;-66
2021/10/20 00:58:57;;;;;;;9.98;7.82;;;;;;;14.70;74.69;100966.16;5092407;28;20479;-66
2021/10/20 01:01:23;;;;;;;15.18;8.50;;;;;;;14.75;74.20;100973.69;5092261;28;20490;-66
2021/10/20 01:03:48;;;;;;;13.90;9.35;;;;;;;14.72;74.36;100972.19;5092274;28;20020;-65
2021/10/20 01:06:14;;;;;;;17.85;10.48;;;;;;;14.76;74.13;100964.63;5092440;28;20452;-66
2021/10/20 01:08:40;;;;;;;16.15;10.10;;;;;;;14.74;73.89;100954.06;5092236;28;20483;-66
2021/10/20 01:11:06;;;;;;;16.88;11.25;;;;;;;14.69;74.68;100944.88;5092213;28;20021;-65
2021/10/20 01:13:32;;;;;;;16.48;10.27;;;;;;;14.66;74.48;100951.44;5092216;28;20066;-66
2021/10/20 01:15:58;;;;;;;16.80;11.77;;;;;;;14.69;74.44;100947.56;5091602;28;20578;-66
2021/10/20 01:18:25;;;;;;;20.30;11.88;;;;;;;14.68;74.45;100953.94;5092227;28;20042;-66
2021/10/20 01:20:51;;;;;;;;;;;;;;;14.60;74.84;100952.94;5092602;28;20116;-66
2021/10/20 01:23:19;;;;;;;18.20;11.70;;;;;;;14.55;74.25;100944.59;5091834;28;20430;-66
2021/10/20 01:25:44;;;;;;;15.32;11.70;;;;;;;14.53;74.43;100943.91;5091511;28;20132;-66
2021/10/20 01:28:10;;;;;;;16.40;11.43;;;;;;;14.53;74.52;100938.56;5092004;28;20111;-66
2021/10/20 01:30:35;;;;;;;16.83;10.77;;;;;;;14.49;74.75;100944.47;5091711;28;20289;-66
2021/10/20 01:33:00;;;;;;;16.30;10.57;;;;;;;14.54;74.27;100937.56;5091810;28;20036;-66
2021/10/20 01:35:25;;;;;;;12.63;10.10;;;;;;;14.53;74.34;100933.19;5091698;28;20028;-66
2021/10/20 01:37:51;;;;;;;16.67;9.87;;;;;;;14.53;74.01;100933.19;5091812;28;20031;-66
2021/10/20 01:40:16;;;;;;;12.75;9.95;;;;;;;14.54;74.11;100937.56;5091484;28;20031;-66
2021/10/20 01:42:42;;;;;;;14.50;9.87;;;;;;;14.55;73.97;100931.19;5091759;28;20016;-66
2021/10/20 01:45:11;;;;;;;15.68;9.93;;;;;;;14.57;73.38;100925.66;5091504;28;20028;-65
2021/10/20 01:47:37;;;;;;;12.57;8.80;;;;;;;14.55;73.90;100933.88;5091416;28;20109;-66
2021/10/20 01:50:06;;;;;;;15.43;9.55;;;;;;;14.53;74.18;100930.50;5091426;28;20016;-66
2021/10/20 01:52:31;;;;;;;12.13;8.95;;;;;;;14.52;74.33;100930.69;5091555;28;20035;-66
2021/10/20 01:54:56;;;;;;;13.57;9.20;;;;;;;14.50;73.84;100914.78;5073016;28;20028;-66
2021/10/20 01:57:21;;;;;;;14.57;9.00;;;;;;;14.51;73.82;100910.25;5091270;28;20117;-66
2021/10/20 01:59:47;;;;;;;12.40;9.10;;;;;;;14.48;73.97;100905.25;5073123;28;20589;-66
2021/10/20 02:02:18;;;;;;;12.95;8.80;;;;;;;14.51;73.44;100888.81;5091232;28;20141;-65
2021/10/20 02:04:44;;;;;;;14.13;8.70;;;;;;;14.55;72.79;100885.59;5091166;28;20089;-65
2021/10/20 02:07:09;;;;;;;13.95;9.23;;;;;;;14.57;72.94;100883.56;5091306;28;20052;-65
2021/10/20 02:09:34;;;;;;;12.23;9.05;;;;;;;14.58;73.23;100885.25;5091095;28;20020;-66
2021/10/20 02:12:00;;;;;;;13.47;8.97;;;;;;;14.56;72.95;100881.91;5090987;28;20387;-66
2021/10/20 02:14:25;;;;;;;13.30;9.93;;;;;;;14.57;73.02;100870.16;5091095;28;20016;-66
2021/10/20 02:16:50;;;;;;;12.87;8.83;;;;;;;14.56;72.53;100867.66;5091085;28;20400;-65
2021/10/20 02:19:15;;;;;;;13.27;9.00;;;;;;;14.54;72.67;100865.16;5091092;28;20027;-65
2021/10/20 02:21:41;;;;;;;14.40;9.80;;;;;;;14.57;72.76;100869.34;5091250;28;20055;-65
2021/10/20 02:24:06;;;;;;;18.67;9.67;;;;;;;14.56;72.70;100859.59;5090956;28;20067;-66
2021/10/20 02:26:32;;;;;;;16.30;9.52;;;;;;;14.52;72.79;100853.75;5089594;28;20294;-66
2021/10/20 02:28:57;;;;;;;12.23;9.27;;;;;;;14.51;72.52;100861.97;5090376;28;20105;-66
2021/10/20 02:31:22;;;;;;;13.77;9.57;;;;;;;14.54;71.73;100841.03;5090741;28;20081;-65
2021/10/20 02:33:48;;;;;;;11.73;9.37;;;;;;;14.55;72.59;100849.88;5090632;28;20285;-66
2021/10/20 02:36:13;;;;;;;17.05;9.90;;;;;;;14.53;72.01;100847.38;5090957;28;20032;-66
2021/10/20 02:38:39;;;;;;;12.13;9.50;;;;;;;14.50;72.39;100846.91;5090790;28;20074;-65
2021/10/20 02:41:04;;;;;;;12.27;9.10;;;;;;;14.51;71.91;100841.38;5090532;28;20285;-66
2021/10/20 02:43:33;;;;;;;12.10;8.30;;;;;;;14.58;71.40;100833.47;5090738;28;20490;-66
2021/10/20 02:45:58;;;;;;;13.45;9.48;;;;;;;14.59;71.51;100825.22;5090693;28;20023;-66
2021/10/20 02:48:23;;;;;;;12.47;9.13;;;;;;;14.57;71.55;100821.88;5090473;28;20024;-65
2021/10/20 02:50:49;;;;;;;15.23;9.00;;;;;;;14.56;71.44;100814.88;5090730;28;20030;-66
2021/10/20 02:53:14;;;;;;;11.80;9.32;;;;;;;14.56;71.84;100822.06;5090689;28;20028;-65
2021/10/20 02:55:40;;;;;;;13.32;8.80;;;;;;;14.52;71.21;100805.50;5090473;28;20063;-66
2021/10/20 02:58:05;;;;;;;10.52;9.10;;;;;;;14.52;71.76;100808.19;5090367;28;20387;-66
2021/10/20 03:00:30;;;;;;;13.68;9.32;;;;;;;14.51;71.61;100803.84;5090642;28;20418;-65
2021/10/20 03:02:56;;;;;;;14.67;9.00;;;;;;;14.52;71.59;100802.81;5090545;28;20028;-65
2021/10/20 03:05:21;;;;;;;15.33;9.47;;;;;;;14.54;71.44;100799.97;5090384;28;20055;-65
2021/10/20 03:07:49;;;;;;;11.27;9.82;;;;;;;14.53;71.22;100793.75;5090552;28;20149;-66
2021/10/20 03:10:16;;;;;;;13.70;10.02;;;;;;;14.53;71.19;100798.31;5090384;28;20024;-66
2021/10/20 03:12:42;;;;;;;14.73;10.00;;;;;;;14.52;71.99;100794.78;5090418;28;20036;-66
2021/10/20 03:15:08;;;;;;;12.95;10.05;;;;;;;14.52;71.67;100785.91;5072282;28;20463;-66
2021/10/20 03:17:33;;;;;;;13.85;9.93;;;;;;;14.54;71.14;100782.03;5090448;28;20137;-66
2021/10/20 03:19:58;;;;;;;15.20;10.23;;;;;;;14.55;71.33;100794.44;5090397;28;20224;-65
2021/10/20 03:22:24;;;;;;;17.30;10.60;;;;;;;14.61;70.43;100787.50;5090575;28;20024;-66
2021/10/20 03:24:49;;;;;;;14.73;10.30;;;;;;;14.61;70.42;100771.41;5102305;22;20286;-67
2021/10/20 03:27:14;;;;;;;15.80;10.73;;;;;;;14.68;69.96;100782.28;5049767;28;20438;-65
2021/10/20 03:29:39;;;;;;;14.35;10.02;;;;;;;14.76;69.74;100783.06;5050116;28;20017;-67
2021/10/20 03:32:05;;;;;;;16.17;10.83;;;;;;;14.80;69.80;100791.59;5049909;28;20455;-66
2021/10/20 03:34:30;;;;;;;15.38;10.68;;;;;;;14.84;68.71;100774.13;5049921;28;20021;-66
2021/10/20 03:36:56;;;;;;;15.70;11.20;;;;;;;14.81;69.97;100776.31;5049970;28;20108;-65
2021/10/20 03:39:21;;;;;;;13.20;9.77;;;;;;;14.78;69.92;100780.19;5052741;28;20111;-65
2021/10/20 03:41:46;;;;;;;15.32;10.60;;;;;;;14.76;69.83;100775.03;5053627;28;20021;-65
2021/10/20 03:44:12;;;;;;;13.05;10.65;;;;;;;14.73;70.66;100769.16;5053675;28;20048;-66
2021/10/20 03:46:37;;;;;;;15.60;10.40;;;;;;;14.74;70.38;100766.31;5053632;28;20052;-66
2021/10/20 03:49:02;;;;;;;13.93;10.17;;;;;;;14.71;70.23;100761.31;5053544;28;20496;-66
2021/10/20 03:51:28;;;;;;;14.55;10.40;;;;;;;14.69;70.79;100774.06;5053279;28;20291;-66
2021/10/20 03:53:53;;;;;;;13.97;10.13;;;;;;;14.78;69.72;100758.75;5053658;28;20589;-66
2021/10/20 03:56:18;;;;;;;12.33;9.67;;;;;;;14.81;70.38;100773.63;5053217;28;20021;-66
2021/10/20 03:58:43;;;;;;;15.93;10.07;;;;;;;14.84;70.54;100760.72;5053194;28;20044;-66
2021/10/20 04:01:09;;;;;;;11.63;9.33;;;;;;;14.84;70.38;100755.34;5053507;28;20310;-66
2021/10/20 04:03:36;;;;;;;18.30;9.27;;;;;;;14.87;70.70;100741.56;5053332;28;20060;-66
2021/10/20 04:06:02;;;;;;;15.27;9.98;;;;;;;14.89;69.97;100739.53;5035604;28;20040;-66
2021/10/20 04:08:27;;;;;;;12.37;9.30;;;;;;;14.91;70.84;100750.91;5053154;28;20013;-66
2021/10/20 04:10:52;;;;;;;11.60;9.43;;;;;;;14.88;71.04;100737.00;5053300;28;20298;-68
2021/10/20 04:13:18;;;;;;;14.37;10.10;;;;;;;14.91;70.30;100728.63;5053139;28;20025;-66
2021/10/20 04:15:43;;;;;;;14.48;9.65;;;;;;;14.93;70.58;100738.16;5053242;28;20201;-66
2021/10/20 04:18:08;;;;;;;14.13;10.00;;;;;;;14.93;70.37;100727.41;5053034;28;20082;-66
2021/10/20 04:20:34;;;;;;;12.87;9.77;;;;;;;14.96;70.81;100704.75;5053012;28;20275;-66
2021/10/20 04:22:59;;;;;;;13.07;9.60;;;;;;;15.04;70.57;100728.00;5052777;28;20622;-66
2021/10/20 04:25:24;;;;;;;12.98;9.35;;;;;;;15.03;70.55;100715.59;5052487;28;20094;-66
2021/10/20 04:27:51;;;;;;;16.10;9.73;;;;;;;15.02;70.56;100724.63;5051729;28;20356;-66
2021/10/20 04:30:18;;;;;;;11.13;9.32;;;;;;;15.02;70.47;100708.53;5052397;28;20839;-66
2021/10/20 04:32:44;;;;;;;17.42;9.70;;;;;;;15.02;71.69;100713.91;5052684;28;20029;-66
2021/10/20 04:35:10;;;;;;;15.98;9.50;;;;;;;14.94;73.40;100720.19;5052725;28;20467;-66
2021/10/20 04:37:37;;;;;;;14.18;9.27;;;;;;;14.75;75.18;100717.00;5052515;28;20029;-65
2021/10/20 04:40:04;;;;;;;;;;;;;;;14.61;75.73;100715.94;5052983;28;20147;-66
2021/10/20 04:42:30;;;;;;;13.07;9.70;;;;;;;14.44;77.07;100723.28;5052665;28;20007;-66
2021/10/20 04:44:57;;;;;;;13.68;9.98;;;;;;;14.28;78.65;100718.06;5052065;28;20114;-67
2021/10/20 04:47:22;;;;;;;12.40;9.32;;;;;;;14.14;79.50;100727.69;5052418;28;20104;-66
2021/10/20 04:49:48;;;;;;;13.25;9.95;;;;;;;14.02;80.34;100726.44;5051693;28;20116;-66
2021/10/20 04:52:14;;;;;;;14.18;9.80;;;;;;;13.91;81.56;100722.31;5052153;28;20130;-66
2021/10/20 04:54:40;;;;;;;13.48;9.30;;;;;;;13.81;81.99;100716.34;5052432;28;20029;-66
2021/10/20 04:57:05;;;;;;;12.20;9.52;;;;;;;13.74;82.55;100726.94;5052432;28;20028;-66
2021/10/20 04:59:32;;;;;;;12.70;10.10;;;;;;;13.68;82.86;100714.22;5052118;28;20392;-66
2021/10/20 05:01:59;;;;;;;;;;;;;;;13.64;83.20;100708.38;5052541;28;20086;-66
2021/10/20 05:04:25;;;;;;;12.73;9.20;;;;;;;13.60;83.21;100709.75;5051902;28;19932;-65
2021/10/20 05:06:51;;;;;;;12.52;9.65;;;;;;;13.58;83.70;100709.91;5052146;28;20207;-66
2021/10/20 05:09:16;;;;;;;12.20;9.18;;;;;;;13.58;83.52;100712.59;5051916;28;20170;-65
2021/10/20 05:11:42;;;;;;;13.27;9.73;;;;;;;13.62;83.53;100707.75;5034020;28;20029;-66
2021/10/20 05:14:07;;;;;;;11.70;9.25;;;;;;;13.69;83.39;100705.19;5051837;28;20029;-66
2021/10/20 05:16:32;;;;;;;12.98;10.13;;;;;;;13.68;83.36;100685.59;5051710;28;20116;-66
2021/10/20 05:18:58;;;;;;;13.10;9.23;;;;;;;13.67;83.42;100664.34;5051811;28;20043;-65
2021/10/20 05:21:23;;;;;;;11.63;10.00;;;;;;;13.69;83.35;100670.38;5051930;28;20322;-65
2021/10/20 05:23:50;;;;;;;13.27;9.27;;;;;;;13.70;83.05;100667.53;5051525;28;20029;-66
2021/10/20 05:26:17;;;;;;;11.18;9.07;;;;;;;13.71;83.05;100663.84;5051274;28;20470;-66
2021/10/20 05:28:42;;;;;;;;;;;;;;;13.71;82.54;100646.91;5052355;28;20369;-67
2021/10/20 05:31:07;;;;;;;12.10;8.73;;;;;;;13.74;82.87;100649.25;5051375;28;19920;-66
2021/10/20 05:33:33;;;;;;;11.83;8.17;;;;;;;13.77;82.49;100648.91;5051612;28;20470;-65
2021/10/20 05:35:58;;;;;;;9.90;8.18;;;;;;;13.81;82.38;100655.56;5051354;28;20021;-65
2021/10/20 05:38:23;;;;;;;15.83;9.83;;;;;;;13.83;82.39;100650.03;5051324;28;20029;-66
2021/10/20 05:40:49;;;;;;;11.47;8.67;;;;;;;13.87;82.13;100648.69;5051316;28;20163;-65
2021/10/20 05:43:14;;;;;;;11.00;8.43;;;;;;;13.92;81.90;100638.25;5051368;28;20029;-66
2021/10/20 05:45:39;;;;;;;10.87;8.20;;;;;;;13.92;82.34;100632.88;5051297;28;20021;-66
2021/10/20 05:48:05;;;;;;;12.80;8.77;;;;;;;13.87;83.20;100605.81;5050930;28;20263;-66
2021/10/20 05:50:30;;;;;;;10.80;8.53;;;;;;;13.80;83.55;100591.47;5051192;28;20120;-65
2021/10/20 05:52:56;;;;;;;12.53;8.77;;;;;;;13.78;83.55;100607.72;5051212;28;20294;-65
2021/10/20 05:55:22;;;;;;;11.70;8.15;;;;;;;13.75;83.80;100600.06;5050764;28;20021;-65
2021/10/20 05:57:47;;;;;;;10.27;8.50;;;;;;;13.78;83.62;100602.38;5051087;28;20083;-65
2021/10/20 06:00:13;;;;;;;12.17;7.83;;;;;;;13.79;83.91;100590.66;5051090;28;20966;-64
2021/10/20 06:02:39;;;;;;;10.27;8.10;;;;;;;13.78;83.90;100584.44;5050812;28;20036;-65
2021/10/20 06:05:06;;;;;;;10.80;8.15;;;;;;;13.88;83.56;100580.69;5051036;28;20025;-65
2021/10/20 06:07:31;;;;;;;9.18;8.05;;;;;;;13.93;83.48;100575.63;5050468;28;20028;-64
2021/10/20 06:09:57;;;;;;;10.10;8.03;;;;;;;14.00;83.30;100592.66;5050642;28;20036;-65
2021/10/20 06:12:22;;;;;;;10.68;7.72;;;;;;;14.10;83.39;100589.72;5050496;28;20821;-65
2021/10/20 06:14:50;;;;;;;10.40;7.88;;;;;;;14.13;83.12;100578.66;5050969;28;20024;-65
2021/10/20 06:17:18;;;;;;;9.30;7.50;;;;;;;14.15;83.09;100571.25;5050631;28;20091;-66
2021/10/20 06:19:44;;;;;;;10.38;7.95;;;;;;;14.18;82.46;100562.84;5032950;28;20548;-65
2021/10/20 06:22:09;;;;;;;9.23;7.50;;;;;;;14.26;81.33;100568.16;5050916;28;20021;-66
2021/10/20 06:24:34;;;;;;;8.23;6.90;;;;;;;14.32;80.38;100569.25;5050511;28;20097;-64
2021/10/20 06:27:00;;;;;;;10.93;6.77;;;;;;;14.35;80.43;100581.47;5050241;28;20056;-65
2021/10/20 06:29:26;;;;;;;7.47;6.73;;;;;;;14.34;79.53;100582.47;5050633;28;20112;-66
2021/10/20 06:31:51;;;;;;;;;;;;;;;14.32;80.09;100573.78;5050985;28;20334;-65
2021/10/20 06:34:17;;;;;;;11.48;6.75;;;;;;;14.25;80.59;100573.69;5050373;28;19952;-65
2021/10/20 06:36:42;;;;;;;11.87;6.87;;;;;;;14.17;80.95;100571.06;5051049;28;20040;-65
2021/10/20 06:39:09;;;;;;;8.30;6.70;;;;;;;14.08;81.50;100592.59;5050491;28;20590;-65
2021/10/20 06:41:34;;;;;;;11.45;6.78;;;;;;;14.04;82.39;100582.38;5050319;28;20037;-65
2021/10/20 06:43:59;;;;;;;8.53;6.50;;;;;;;13.99;82.84;100566.06;5050464;28;20029;-63
2021/10/20 06:46:25;;;;;;;10.07;6.50;;;;;;;13.91;83.11;100565.09;5050322;28;20040;-64
2021/10/20 06:48:51;;;;;;;10.10;6.68;;;;;;;13.85;82.94;100568.47;5050158;28;20751;-63
2021/10/20 06:51:16;;;;;;;9.73;6.55;;;;;;;13.80;83.73;100546.75;5050251;28;20579;-63
2021/10/20 06:53:42;;;;;;;8.38;6.65;;;;;;;13.78;84.16;100538.09;5050580;28;20028;-62
2021/10/20 06:56:07;;;;;;;7.15;6.45;;;;;;;13.76;84.04;100516.00;5050092;28;20021;-62
2021/10/20 06:58:34;;;;;;;8.32;5.95;;;;;;;13.72;84.20;100507.53;5050600;28;20115;-62
2021/10/20 07:01:00;;;;;;;7.05;6.35;;;;;;;13.68;84.42;100508.88;5050205;28;20029;-63
2021/10/20 07:03:25;;;;;;;8.02;6.30;;;;;;;13.65;85.09;100490.50;5050189;28;20093;-63
2021/10/20 07:05:50;;;;;;;7.60;6.73;;;;;;;13.66;84.88;100477.94;5050331;28;20481;-64
2021/10/20 07:08:16;;;;;;;8.17;6.37;;;;;;;13.66;85.04;100456.50;5050257;28;20021;-65
2021/10/20 07:10:41;;;;;;;7.57;6.45;;;;;;;13.69;84.82;100442.78;5050261;28;20025;-63
2021/10/20 07:13:07;;;;;;;7.47;6.63;;;;;;;13.65;84.88;100438.81;5051124;28;20109;-63
2021/10/20 07:15:32;;;;;;;6.60;6.00;;;;;;;13.61;85.05;100416.91;5053830;28;20207;-64
2021/10/20 07:17:58;;;;;;;8.05;6.65;;;;;;;13.59;85.31;100408.22;5054006;28;20048;-63
2021/10/20 07:20:23;;;;;;;6.83;6.10;;;;;;;13.63;85.13;100411.38;5053804;28;20044;-64
2021/10/20 07:22:49;;;;;;;10.05;6.72;;;;;;;13.60;85.56;100404.53;5054125;28;20051;-64
2021/10/20 07:25:17;;;;;;;7.40;6.38;;;;;;;13.56;85.72;100392.53;5059296;23;20096;-65
2021/10/20 07:27:43;;;;;;;8.70;6.78;;;;;;;13.55;85.82;100413.13;5053568;28;20121;-67
2021/10/20 07:30:10;;;;;;;10.05;6.75;;;;;;;13.53;86.02;100427.69;5054012;28;20462;-65
2021/10/20 07:32:37;;;;;;;8.32;6.22;;;;;;;13.51;85.92;100425.19;5053919;28;20028;-63
2021/10/20 07:35:03;;;;;;;7.35;6.55;;;;;;;13.53;85.99;100409.78;5053575;28;20032;-65
2021/10/20 07:37:29;;;;;;;;;;;;;;;13.53;85.87;100417.00;5036363;28;20325;-64
2021/10/20 07:39:54;;;;;;;7.85;5.50;;;;;;;13.53;86.10;100409.78;5053590;28;19917;-64
2021/10/20 07:42:19;;;;;;;8.70;5.68;;;;;;;13.59;86.04;100424.28;5053596;28;20137;-63
2021/10/20 07:44:48;;;;;;;6.53;5.93;;;;;;;13.60;86.11;100434.81;5053775;28;20550;-63
2021/10/20 07:47:15;;;;;;;6.47;5.88;;;;;;;13.67;85.19;100423.38;5053810;28;20021;-66
2021/10/20 07:49:41;;;;;;;6.10;5.50;;;;;;;13.74;85.26;100410.94;5053537;28;20075;-63
2021/10/20 07:52:07;;;;;;;7.75;5.93;;;;;;;13.82;85.20;100418.06;5053228;28;20029;-65
2021/10/20 07:54:32;;;;;;;6.22;5.28;;;;;;;13.92;84.28;100423.94;5035342;28;20017;-63
2021/10/20 07:56:58;;;;;;;6.72;5.32;;;;;;;13.91;84.52;100446.41;5053094;28;20060;-65
2021/10/20 07:59:24;;;;;;;6.22;5.15;;;;;;;13.98;84.22;100454.56;5053036;28;20461;-65
2021/10/20 08:01:50;;;;;;;8.52;5.43;;;;;;;13.98;84.62;100460.72;5053306;28;20104;-62
2021/10/20 08:04:15;;;;;;;7.57;5.10;;;;;;;14.12;84.46;100440.34;5035073;28;20109;-62
2021/10/20 08:06:40;;;;;;;6.03;5.00;;;;;;;14.24;83.68;100454.91;5053167;28;20333;-64
2021/10/20 08:09:06;;;;;;;7.63;5.78;;;;;;;14.32;82.81;100445.97;5035222;28;20017;-64
2021/10/20 08:11:31;;;;;;;5.90;4.93;;;;;;;14.34;82.72;100451.97;5052950;28;20357;-64
2021/10/20 08:13:56;;;;;;;6.40;5.50;;;;;;;14.35;83.17;100434.03;5052985;28;20468;-69
2021/10/20 08:16:22;;;;;;;6.95;5.40;;;;;;;14.35;82.93;100445.56;5052855;28;20028;-63
2021/10/20 08:18:47;;;;;;;7.25;5.70;;;;;;;14.34;82.62;100445.75;5053040;28;20032;-63
2021/10/20 08:21:13;;;;;;;8.10;6.18;;;;;;;14.39;82.27;100424.59;5052874;28;20029;-63
2021/10/20 08:23:41;;;;;;;8.32;6.18;;;;;;;14.42;83.00;100434.97;5052794;28;20431;-63
2021/10/20 08:26:07;;;;;;;7.50;5.93;;;;;;;14.55;83.45;100437.81;5051272;28;20412;-63
2021/10/20 08:28:32;;;;;;;8.30;5.83;;;;;;;14.62;82.55;100445.94;5052669;28;20025;-63
2021/10/20 08:30:58;;;;;;;9.93;6.10;;;;;;;14.68;82.33;100426.44;5052883;28;20382;-64
2021/10/20 08:33:24;;;;;;;7.53;5.95;;;;;;;14.77;81.49;100428.00;5052607;28;20025;-63
2021/10/20 08:35:49;;;;;;;6.70;5.80;;;;;;;14.85;80.87;100408.28;5052765;28;20086;-62
2021/10/20 08:38:14;;;;;;;6.07;5.47;;;;;;;15.09;81.03;100433.88;5052285;28;20071;-63
2021/10/20 08:40:45;;;;;;;7.30;6.10;;;;;;;15.26;79.75;100413.00;5052688;28;20267;-64
2021/10/20 08:43:10;;;;;;;7.13;6.30;;;;;;;15.46;79.51;100406.13;5052566;28;20559;-62
2021/10/20 08:45:36;;;;;;;8.20;6.53;;;;;;;15.79;79.34;100386.75;5052331;28;20112;-63
2021/10/20 08:48:01;;;;;;;7.07;6.37;;;;;;;16.02;77.45;100414.22;5052465;28;20052;-63
2021/10/20 08:50:29;;;;;;;7.03;6.15;;;;;;;16.18;76.92;100393.41;5052496;28;20342;-64
2021/10/20 08:52:55;;;;;;;8.98;7.00;;;;;;;16.14;76.80;100405.56;5052039;28;20043;-64
2021/10/20 08:55:23;;;;;;;7.40;6.38;;;;;;;16.26;76.49;100428.19;5051989;28;20108;-63
2021/10/20 08:57:49;;;;;;;6.93;6.22;;;;;;;16.30;76.23;100420.53;5052290;28;20029;-62
2021/10/20 09:00:16;;;;;;;8.52;6.93;;;;;;;16.21;75.67;100404.59;5052130;28;20094;-62
2021/10/20 09:02:42;;;;;;;7.65;6.85;;;;;;;16.22;75.82;100402.75;5052425;28;20025;-62
2021/10/20 09:05:13;;;;;;;8.43;7.50;;;;;;;16.00;76.27;100388.56;5052143;28;20029;-63
2021/10/20 09:07:47;;;;;;;9.60;6.80;;;;;;;15.90;77.13;100405.03;5051923;28;20566;-63
2021/10/20 09:10:13;;;;;;;7.25;6.32;;;;;;;15.97;77.43;100384.41;5052048;28;20064;-64
2021/10/20 09:12:40;;;;;;;7.68;6.88;;;;;;;16.02;77.76;100381.97;5051889;28;20059;-64
2021/10/20 09:15:08;;;;;;;8.68;6.85;;;;;;;15.95;77.22;100389.16;5052096;28;20025;-65
2021/10/20 09:17:54;;;;;;;7.53;6.82;;;;;;;15.98;77.14;100374.47;5051848;28;20506;-63
2021/10/20 09:20:32;;;;;;;7.50;6.70;;;;;;;16.01;76.23;100371.38;5051712;28;20115;-68
2021/10/20 09:23:05;;;;;;;7.25;6.50;;;;;;;16.14;76.37;100387.59;5051119;28;20025;-63
2021/10/20 09:25:35;;;;;;;8.07;6.53;;;;;;;16.27;76.40;100371.53;5051106;28;20029;-63
2021/10/20 09:28:01;;;;;;;7.55;6.60;;;;;;;16.26;75.95;100374.44;5051675;28;20033;-63
2021/10/20 09:30:28;;;;;;;7.15;6.43;;;;;;;16.10;76.49;100362.97;5051141;28;20091;-62
2021/10/20 09:32:57;;;;;;;7.70;6.50;;;;;;;16.10;76.16;100376.41;5051453;28;20025;-64
2021/10/20 09:35:22;;;;;;;8.85;6.43;;;;;;;16.03;76.24;100375.53;5051426;28;20456;-62
2021/10/20 09:37:47;;;;;;;7.47;6.00;;;;;;;15.99;77.11;100379.66;5051205;28;20089;-63
2021/10/20 09:40:14;;;;;;;7.00;6.30;;;;;;;15.90;77.32;100388.91;5051251;28;20472;-64
2021/10/20 09:42:47;;;;;;;7.18;6.47;;;;;;;15.93;77.27;100375.91;5051674;28;20021;-62
2021/10/20 09:45:16;;;;;;;9.82;6.45;;;;;;;15.92;76.69;100374.25;5051491;28;20078;-63
2021/10/20 09:47:42;;;;;;;7.57;5.90;;;;;;;15.97;77.23;100387.09;5051436;28;20469;-63
2021/10/20 09:50:08;;;;;;;7.55;6.57;;;;;;;15.92;76.63;100371.56;5051316;28;20051;-63
2021/10/20 09:52:47;;;;;;;;;;;;;;;16.01;76.95;100376.75;5051503;28;20385;-63
2021/10/20 09:55:24;;;;;;;6.95;5.45;;;;;;;16.09;77.13;100379.31;5051047;28;19974;-63
2021/10/20 09:58:03;;;;;;;7.70;6.30;;;;;;;16.06;76.70;100369.78;5051170;28;20111;-63
2021/10/20 10:00:30;;;;;;;6.95;6.00;;;;;;;16.15;77.01;100362.38;5051051;28;20086;-63
2021/10/20 10:02:57;;;;;;;8.00;6.03;;;;;;;16.31;76.40;100355.84;5050733;28;20550;-64
2021/10/20 10:05:22;;;;;;;6.60;5.90;;;;;;;16.41;76.06;100363.50;5050630;28;20029;-63
2021/10/20 10:07:48;;;;;;;8.87;5.73;;;;;;;16.59;75.50;100362.97;5050833;28;20090;-63
2021/10/20 10:10:13;;;;;;;6.72;6.00;;;;;;;16.80;74.98;100370.03;5050770;28;20276;-63
2021/10/20 10:12:41;;;;;;;8.63;5.78;;;;;;;16.81;74.65;100362.78;5050931;28;20108;-64
2021/10/20 10:15:10;;;;;;;6.60;5.85;;;;;;;16.65;74.70;100374.75;5050768;28;20021;-62
2021/10/20 10:17:38;;;;;;;7.63;5.72;;;;;;;16.72;75.07;100389.06;5050649;28;20082;-62
2021/10/20 10:20:11;;;;;;;8.13;6.13;;;;;;;16.79;74.39;100376.44;5050524;28;20017;-63
2021/10/20 10:22:59;;;;;;;6.93;5.57;;;;;;;16.91;74.06;100380.25;5050914;28;20043;-67
2021/10/20 10:25:40;;;;;;;8.20;5.50;;;;;;;16.90;74.29;100383.13;5049921;28;20033;-67
2021/10/20 10:28:17;;;;;;;7.03;5.47;;;;;;;17.00;74.53;100372.78;5050458;28;20025;-68
2021/10/20 10:31:05;;;;;;;8.73;5.93;;;;;;;17.19;73.34;100368.47;5050272;28;20115;-67
2021/10/20 10:33:33;;;;;;;9.88;5.85;;;;;;;17.20;72.92;100374.66;5049742;28;20021;-67
2021/10/20 10:36:15;;;;;;;6.80;6.03;;;;;;;17.11;72.98;100382.09;5050266;28;20024;-73
2021/10/20 10:38:46;;;;;;;12.63;6.22;;;;;;;16.89;73.86;100379.56;5049871;28;20025;-68
2021/10/20 10:41:39;;;;;;;9.07;5.82;;;;;;;16.76;74.25;100379.56;5032236;28;20128;-68
2021/10/20 10:44:07;;;;;;;7.82;5.70;;;;;;;16.67;74.82;100381.59;5050574;28;20450;-69
2021/10/20 10:46:51;;;;;;;9.90;6.13;;;;;;;16.58;75.07;100359.41;5050176;28;20392;-69
2021/10/20 10:49:24;;;;;;;9.65;5.18;;;;;;;16.55;75.18;100378.66;5049527;28;20025;-70
2021/10/20 10:52:03;;;;;;;6.15;5.05;;;;;;;16.42;75.29;100382.13;5050302;28;20029;-68
2021/10/20 10:54:39;;;;;;;9.07;5.63;;;;;;;16.35;75.53;100350.88;5050097;28;20029;-67
2021/10/20 10:57:11;;;;;;;10.20;6.32;;;;;;;16.25;76.05;100364.69;5049854;28;20115;-68
2021/10/20 10:59:37;;;;;;;6.28;5.32;;;;;;;16.19;75.21;100365.50;5050208;28;20124;-61
2021/10/20 11:02:02;;;;;;;7.22;5.38;;;;;;;16.17;75.48;100352.25;5032339;28;20493;-62
2021/10/20 11:04:36;;;;;;;5.88;5.20;;;;;;;16.23;75.79;100359.53;5050418;28;20064;-62
2021/10/20 11:07:03;;;;;;;6.75;5.20;;;;;;;16.31;75.83;100357.69;5050003;28;20254;-66
2021/10/20 11:09:31;;;;;;;8.52;5.03;;;;;;;16.41;74.97;100358.94;5050039;28;20031;-67
2021/10/20 11:11:58;;;;;;;7.68;5.20;;;;;;;16.55;74.66;100364.41;5031826;28;20067;-62
2021/10/20 11:14:25;;;;;;;6.65;5.13;;;;;;;16.60;74.15;100370.81;5049978;28;20051;-64
2021/10/20 11:17:07;;;;;;;5.55;4.57;;;;;;;16.60;73.54;100360.06;5050042;28;20506;-62
2021/10/20 11:19:33;;;;;;;7.80;5.20;;;;;;;16.61;73.56;100347.41;5050096;28;20036;-66